sensor_id;sensor_type;location;lat;lon;timestamp;P1;durP1;ratioP1;P2;durP2;ratioP2
8596;SDS011;4336;49.310;8.646;2023-04-24T00:00:16;8.67;;;7.97;;
8596;SDS011;4336;49.310;8.646;2023-04-24T00:02:43;5.90;;;5.50;;
8596;SDS011;4336;49.310;8.646;2023-04-24T00:05:13;7.63;;;7.03;;
8596;SDS011;4336;49.310;8.646;2023-04-24T00:07:43;7.20;;;6.63;;
8596;SDS011;4336;49.310;8.646;2023-04-24T00:10:10;8.57;;;7.87;;
8596;SDS011;4336;49.310;8.646;2023-04-24T00:12:36;5.60;;;5.20;;
8596;SDS011;4336;49.310;8.646;2023-04-24T00:15:03;8.90;;;8.10;;
8596;SDS011;4336;49.310;8.646;2023-04-24T00:17:29;9.07;;;8.23;;
8596;SDS011;4336;49.310;8.646;2023-04-24T00:19:55;8.23;;;7.63;;
8596;SDS011;4336;49.310;8.646;2023-04-24T00:22:27;8.40;;;7.77;;
8596;SDS011;4336;49.310;8.646;2023-04-24T00:24:53;7.90;;;7.30;;
8596;SDS011;4336;49.310;8.646;2023-04-24T00:27:19;6.23;;;5.73;;
8596;SDS011;4336;49.310;8.646;2023-04-24T00:29:46;7.80;;;7.20;;
8596;SDS011;4336;49.310;8.646;2023-04-24T00:32:13;6.47;;;5.97;;
8596;SDS011;4336;49.310;8.646;2023-04-24T00:34:39;8.50;;;7.80;;
8596;SDS011;4336;49.310;8.646;2023-04-24T00:37:05;6.17;;;5.67;;
8596;SDS011;4336;49.310;8.646;2023-04-24T00:39:32;7.57;;;6.97;;
8596;SDS011;4336;49.310;8.646;2023-04-24T00:41:58;8.17;;;7.57;;
8596;SDS011;4336;49.310;8.646;2023-04-24T00:44:25;7.90;;;7.30;;
8596;SDS011;4336;49.310;8.646;2023-04-24T00:46:51;8.63;;;7.93;;
8596;SDS011;4336;49.310;8.646;2023-04-24T00:49:20;8.07;;;7.47;;
8596;SDS011;4336;49.310;8.646;2023-04-24T00:51:46;7.30;;;6.70;;
8596;SDS011;4336;49.310;8.646;2023-04-24T00:54:14;8.97;;;8.27;;
8596;SDS011;4336;49.310;8.646;2023-04-24T00:56:41;7.73;;;7.13;;
8596;SDS011;4336;49.310;8.646;2023-04-24T00:59:09;7.43;;;6.83;;
8596;SDS011;4336;49.310;8.646;2023-04-24T01:01:35;7.10;;;6.60;;
8596;SDS011;4336;49.310;8.646;2023-04-24T01:04:02;7.67;;;7.07;;
8596;SDS011;4336;49.310;8.646;2023-04-24T01:06:29;7.67;;;7.07;;
8596;SDS011;4336;49.310;8.646;2023-04-24T01:08:58;7.67;;;7.07;;
8596;SDS011;4336;49.310;8.646;2023-04-24T01:11:25;8.33;;;7.67;;
8596;SDS011;4336;49.310;8.646;2023-04-24T01:13:51;6.50;;;6.00;;
8596;SDS011;4336;49.310;8.646;2023-04-24T01:16:18;7.90;;;7.30;;
8596;SDS011;4336;49.310;8.646;2023-04-24T01:18:46;7.80;;;7.20;;
8596;SDS011;4336;49.310;8.646;2023-04-24T01:21:15;8.60;;;7.90;;
8596;SDS011;4336;49.310;8.646;2023-04-24T01:23:45;8.50;;;7.70;;
8596;SDS011;4336;49.310;8.646;2023-04-24T01:26:11;7.30;;;6.70;;
8596;SDS011;4336;49.310;8.646;2023-04-24T01:28:38;7.23;;;6.70;;
8596;SDS011;4336;49.310;8.646;2023-04-24T01:31:04;7.83;;;7.23;;
8596;SDS011;4336;49.310;8.646;2023-04-24T01:33:31;8.40;;;7.70;;
8596;SDS011;4336;49.310;8.646;2023-04-24T01:35:57;7.60;;;7.00;;
8596;SDS011;4336;49.310;8.646;2023-04-24T01:38:23;6.17;;;5.67;;
8596;SDS011;4336;49.310;8.646;2023-04-24T01:40:50;8.87;;;8.13;;
8596;SDS011;4336;49.310;8.646;2023-04-24T01:43:17;7.67;;;7.07;;
8596;SDS011;4336;49.310;8.646;2023-04-24T01:45:43;7.60;;;7.00;;
8596;SDS011;4336;49.310;8.646;2023-04-24T01:48:11;7.83;;;7.23;;
8596;SDS011;4336;49.310;8.646;2023-04-24T01:50:37;7.70;;;7.10;;
8596;SDS011;4336;49.310;8.646;2023-04-24T01:53:03;8.00;;;7.40;;
8596;SDS011;4336;49.310;8.646;2023-04-24T01:55:29;5.87;;;5.47;;
8596;SDS011;4336;49.310;8.646;2023-04-24T01:57:56;8.47;;;7.77;;
8596;SDS011;4336;49.310;8.646;2023-04-24T02:00:22;12.93;;;7.93;;
8596;SDS011;4336;49.310;8.646;2023-04-24T02:02:51;8.20;;;7.60;;
8596;SDS011;4336;49.310;8.646;2023-04-24T02:05:17;7.50;;;6.90;;
8596;SDS011;4336;49.310;8.646;2023-04-24T02:07:43;7.40;;;6.80;;
8596;SDS011;4336;49.310;8.646;2023-04-24T02:10:10;8.47;;;7.77;;
8596;SDS011;4336;49.310;8.646;2023-04-24T02:12:41;7.87;;;7.27;;
8596;SDS011;4336;49.310;8.646;2023-04-24T02:15:07;7.70;;;7.10;;
8596;SDS011;4336;49.310;8.646;2023-04-24T02:17:36;7.70;;;7.10;;
8596;SDS011;4336;49.310;8.646;2023-04-24T02:20:03;8.03;;;7.43;;
8596;SDS011;4336;49.310;8.646;2023-04-24T02:22:30;7.90;;;7.30;;
8596;SDS011;4336;49.310;8.646;2023-04-24T02:25:00;7.67;;;7.07;;
8596;SDS011;4336;49.310;8.646;2023-04-24T02:27:26;7.77;;;7.17;;
8596;SDS011;4336;49.310;8.646;2023-04-24T02:29:53;7.70;;;7.10;;
8596;SDS011;4336;49.310;8.646;2023-04-24T02:32:19;8.03;;;7.43;;
8596;SDS011;4336;49.310;8.646;2023-04-24T02:34:45;8.03;;;7.43;;
8596;SDS011;4336;49.310;8.646;2023-04-24T02:37:11;6.50;;;6.00;;
8596;SDS011;4336;49.310;8.646;2023-04-24T02:39:38;7.80;;;7.20;;
8596;SDS011;4336;49.310;8.646;2023-04-24T02:42:04;7.90;;;7.30;;
8596;SDS011;4336;49.310;8.646;2023-04-24T02:44:30;8.03;;;7.43;;
8596;SDS011;4336;49.310;8.646;2023-04-24T02:46:56;6.97;;;6.47;;
8596;SDS011;4336;49.310;8.646;2023-04-24T02:49:22;8.53;;;7.73;;
8596;SDS011;4336;49.310;8.646;2023-04-24T02:51:49;7.97;;;7.37;;
8596;SDS011;4336;49.310;8.646;2023-04-24T02:54:15;7.77;;;7.17;;
8596;SDS011;4336;49.310;8.646;2023-04-24T02:56:41;8.77;;;8.07;;
8596;SDS011;4336;49.310;8.646;2023-04-24T02:59:08;7.70;;;7.10;;
8596;SDS011;4336;49.310;8.646;2023-04-24T03:01:35;7.80;;;7.20;;
8596;SDS011;4336;49.310;8.646;2023-04-24T03:04:02;7.97;;;7.37;;
8596;SDS011;4336;49.310;8.646;2023-04-24T03:06:28;6.70;;;6.20;;
8596;SDS011;4336;49.310;8.646;2023-04-24T03:08:56;7.50;;;6.90;;
8596;SDS011;4336;49.310;8.646;2023-04-24T03:11:22;7.70;;;7.10;;
8596;SDS011;4336;49.310;8.646;2023-04-24T03:13:48;6.20;;;5.73;;
8596;SDS011;4336;49.310;8.646;2023-04-24T03:16:14;7.43;;;6.83;;
8596;SDS011;4336;49.310;8.646;2023-04-24T03:18:41;7.90;;;7.30;;
8596;SDS011;4336;49.310;8.646;2023-04-24T03:21:08;8.60;;;7.90;;
8596;SDS011;4336;49.310;8.646;2023-04-24T03:23:34;6.57;;;6.07;;
8596;SDS011;4336;49.310;8.646;2023-04-24T03:26:00;7.30;;;6.70;;
8596;SDS011;4336;49.310;8.646;2023-04-24T03:28:28;8.30;;;7.60;;
8596;SDS011;4336;49.310;8.646;2023-04-24T03:30:59;8.20;;;7.60;;
8596;SDS011;4336;49.310;8.646;2023-04-24T03:33:30;9.00;;;8.07;;
8596;SDS011;4336;49.310;8.646;2023-04-24T03:35:59;8.20;;;7.53;;
8596;SDS011;4336;49.310;8.646;2023-04-24T03:38:31;8.60;;;7.90;;
8596;SDS011;4336;49.310;8.646;2023-04-24T03:41:29;8.87;;;8.07;;
8596;SDS011;4336;49.310;8.646;2023-04-24T03:44:12;8.13;;;7.53;;
8596;SDS011;4336;49.310;8.646;2023-04-24T03:46:39;7.83;;;7.23;;
8596;SDS011;4336;49.310;8.646;2023-04-24T03:49:05;6.70;;;6.20;;
8596;SDS011;4336;49.310;8.646;2023-04-24T03:51:35;6.77;;;6.27;;
8596;SDS011;4336;49.310;8.646;2023-04-24T03:54:13;7.70;;;7.10;;
8596;SDS011;4336;49.310;8.646;2023-04-24T03:56:39;7.80;;;7.20;;
8596;SDS011;4336;49.310;8.646;2023-04-24T03:59:06;7.90;;;7.30;;
8596;SDS011;4336;49.310;8.646;2023-04-24T04:01:34;8.07;;;7.47;;
8596;SDS011;4336;49.310;8.646;2023-04-24T04:04:16;7.57;;;6.97;;
8596;SDS011;4336;49.310;8.646;2023-04-24T04:06:43;8.03;;;7.43;;
8596;SDS011;4336;49.310;8.646;2023-04-24T04:09:11;7.80;;;7.20;;
8596;SDS011;4336;49.310;8.646;2023-04-24T04:11:37;7.83;;;7.23;;
8596;SDS011;4336;49.310;8.646;2023-04-24T04:14:04;7.50;;;6.90;;
8596;SDS011;4336;49.310;8.646;2023-04-24T04:16:32;6.57;;;6.07;;
8596;SDS011;4336;49.310;8.646;2023-04-24T04:19:02;6.20;;;5.70;;
8596;SDS011;4336;49.310;8.646;2023-04-24T04:21:29;8.77;;;8.07;;
8596;SDS011;4336;49.310;8.646;2023-04-24T04:24:06;7.90;;;7.30;;
8596;SDS011;4336;49.310;8.646;2023-04-24T04:26:36;7.77;;;7.17;;
8596;SDS011;4336;49.310;8.646;2023-04-24T04:29:07;7.77;;;7.17;;
8596;SDS011;4336;49.310;8.646;2023-04-24T04:31:37;7.73;;;7.13;;
8596;SDS011;4336;49.310;8.646;2023-04-24T04:34:08;8.20;;;7.57;;
8596;SDS011;4336;49.310;8.646;2023-04-24T04:36:35;8.30;;;7.60;;
8596;SDS011;4336;49.310;8.646;2023-04-24T04:39:11;6.00;;;5.60;;
8596;SDS011;4336;49.310;8.646;2023-04-24T04:41:53;8.43;;;7.73;;
8596;SDS011;4336;49.310;8.646;2023-04-24T04:44:23;9.17;;;8.27;;
8596;SDS011;4336;49.310;8.646;2023-04-24T04:46:50;8.43;;;7.73;;
8596;SDS011;4336;49.310;8.646;2023-04-24T04:49:25;7.73;;;7.13;;
8596;SDS011;4336;49.310;8.646;2023-04-24T04:51:53;8.13;;;7.50;;
8596;SDS011;4336;49.310;8.646;2023-04-24T04:54:21;8.00;;;7.40;;
8596;SDS011;4336;49.310;8.646;2023-04-24T04:56:48;8.63;;;7.93;;
8596;SDS011;4336;49.310;8.646;2023-04-24T04:59:15;6.43;;;5.93;;
8596;SDS011;4336;49.310;8.646;2023-04-24T05:01:42;8.50;;;7.80;;
8596;SDS011;4336;49.310;8.646;2023-04-24T05:04:10;7.87;;;7.27;;
8596;SDS011;4336;49.310;8.646;2023-04-24T05:06:36;8.63;;;7.93;;
8596;SDS011;4336;49.310;8.646;2023-04-24T05:09:04;8.00;;;7.40;;
8596;SDS011;4336;49.310;8.646;2023-04-24T05:11:58;6.23;;;5.73;;
8596;SDS011;4336;49.310;8.646;2023-04-24T05:14:26;8.40;;;7.70;;
8596;SDS011;4336;49.310;8.646;2023-04-24T05:16:52;6.27;;;5.77;;
8596;SDS011;4336;49.310;8.646;2023-04-24T05:19:20;8.90;;;8.20;;
8596;SDS011;4336;49.310;8.646;2023-04-24T05:21:47;8.43;;;7.73;;
8596;SDS011;4336;49.310;8.646;2023-04-24T05:24:14;8.80;;;8.10;;
8596;SDS011;4336;49.310;8.646;2023-04-24T05:26:43;8.37;;;7.67;;
8596;SDS011;4336;49.310;8.646;2023-04-24T05:29:11;8.60;;;7.90;;
8596;SDS011;4336;49.310;8.646;2023-04-24T05:31:37;8.67;;;7.97;;
8596;SDS011;4336;49.310;8.646;2023-04-24T05:34:04;8.90;;;8.20;;
8596;SDS011;4336;49.310;8.646;2023-04-24T05:36:32;6.90;;;6.40;;
8596;SDS011;4336;49.310;8.646;2023-04-24T05:38:58;8.50;;;7.80;;
8596;SDS011;4336;49.310;8.646;2023-04-24T05:41:25;8.97;;;8.27;;
8596;SDS011;4336;49.310;8.646;2023-04-24T05:43:51;8.50;;;7.80;;
8596;SDS011;4336;49.310;8.646;2023-04-24T05:46:17;8.83;;;8.13;;
8596;SDS011;4336;49.310;8.646;2023-04-24T05:48:43;7.90;;;7.30;;
8596;SDS011;4336;49.310;8.646;2023-04-24T05:51:10;8.50;;;7.80;;
8596;SDS011;4336;49.310;8.646;2023-04-24T05:53:36;8.73;;;8.03;;
8596;SDS011;4336;49.310;8.646;2023-04-24T05:56:02;8.57;;;7.87;;
8596;SDS011;4336;49.310;8.646;2023-04-24T05:58:30;8.43;;;7.77;;
8596;SDS011;4336;49.310;8.646;2023-04-24T06:00:56;5.90;;;5.50;;
8596;SDS011;4336;49.310;8.646;2023-04-24T06:03:24;10.83;;;8.83;;
8596;SDS011;4336;49.310;8.646;2023-04-24T06:05:50;7.60;;;6.93;;
8596;SDS011;4336;49.310;8.646;2023-04-24T06:08:17;9.30;;;8.47;;
8596;SDS011;4336;49.310;8.646;2023-04-24T06:10:44;8.80;;;8.10;;
8596;SDS011;4336;49.310;8.646;2023-04-24T06:13:11;8.87;;;8.17;;
8596;SDS011;4336;49.310;8.646;2023-04-24T06:15:41;9.33;;;8.53;;
8596;SDS011;4336;49.310;8.646;2023-04-24T06:18:15;8.70;;;8.00;;
8596;SDS011;4336;49.310;8.646;2023-04-24T06:20:42;8.83;;;8.13;;
8596;SDS011;4336;49.310;8.646;2023-04-24T06:23:08;8.67;;;7.97;;
8596;SDS011;4336;49.310;8.646;2023-04-24T06:25:35;8.37;;;7.67;;
8596;SDS011;4336;49.310;8.646;2023-04-24T06:28:01;9.23;;;8.43;;
8596;SDS011;4336;49.310;8.646;2023-04-24T06:30:29;9.00;;;8.30;;
8596;SDS011;4336;49.310;8.646;2023-04-24T06:32:55;8.70;;;8.00;;
8596;SDS011;4336;49.310;8.646;2023-04-24T06:35:21;8.43;;;7.73;;
8596;SDS011;4336;49.310;8.646;2023-04-24T06:37:47;9.00;;;8.20;;
8596;SDS011;4336;49.310;8.646;2023-04-24T06:40:13;7.13;;;6.53;;
8596;SDS011;4336;49.310;8.646;2023-04-24T06:42:39;8.30;;;7.60;;
8596;SDS011;4336;49.310;8.646;2023-04-24T06:45:07;6.17;;;5.73;;
8596;SDS011;4336;49.310;8.646;2023-04-24T06:47:33;8.67;;;7.97;;
8596;SDS011;4336;49.310;8.646;2023-04-24T06:50:00;8.27;;;7.67;;
8596;SDS011;4336;49.310;8.646;2023-04-24T06:52:26;8.07;;;7.47;;
8596;SDS011;4336;49.310;8.646;2023-04-24T06:54:52;7.93;;;7.23;;
8596;SDS011;4336;49.310;8.646;2023-04-24T06:57:18;6.20;;;5.73;;
8596;SDS011;4336;49.310;8.646;2023-04-24T06:59:45;6.60;;;6.07;;
8596;SDS011;4336;49.310;8.646;2023-04-24T07:02:11;5.53;;;5.13;;
8596;SDS011;4336;49.310;8.646;2023-04-24T07:04:37;7.97;;;7.37;;
8596;SDS011;4336;49.310;8.646;2023-04-24T07:07:04;7.10;;;6.57;;
8596;SDS011;4336;49.310;8.646;2023-04-24T07:09:31;4.60;;;4.20;;
8596;SDS011;4336;49.310;8.646;2023-04-24T07:11:57;6.90;;;6.40;;
8596;SDS011;4336;49.310;8.646;2023-04-24T07:14:24;7.67;;;7.07;;
8596;SDS011;4336;49.310;8.646;2023-04-24T07:16:50;7.43;;;6.83;;
8596;SDS011;4336;49.310;8.646;2023-04-24T07:19:16;6.20;;;5.70;;
8596;SDS011;4336;49.310;8.646;2023-04-24T07:21:42;7.67;;;7.07;;
8596;SDS011;4336;49.310;8.646;2023-04-24T07:24:09;7.63;;;6.83;;
8596;SDS011;4336;49.310;8.646;2023-04-24T07:26:36;7.33;;;6.77;;
8596;SDS011;4336;49.310;8.646;2023-04-24T07:29:03;7.37;;;6.77;;
8596;SDS011;4336;49.310;8.646;2023-04-24T07:31:29;6.93;;;6.43;;
8596;SDS011;4336;49.310;8.646;2023-04-24T07:33:56;5.80;;;5.40;;
8596;SDS011;4336;49.310;8.646;2023-04-24T07:36:23;7.00;;;6.50;;
8596;SDS011;4336;49.310;8.646;2023-04-24T07:38:51;7.07;;;6.53;;
8596;SDS011;4336;49.310;8.646;2023-04-24T07:41:17;9.07;;;8.37;;
8596;SDS011;4336;49.310;8.646;2023-04-24T07:43:44;8.80;;;8.10;;
8596;SDS011;4336;49.310;8.646;2023-04-24T07:46:11;7.60;;;7.00;;
8596;SDS011;4336;49.310;8.646;2023-04-24T07:48:37;6.93;;;6.40;;
8596;SDS011;4336;49.310;8.646;2023-04-24T07:51:03;7.70;;;7.10;;
8596;SDS011;4336;49.310;8.646;2023-04-24T07:53:29;5.97;;;5.57;;
8596;SDS011;4336;49.310;8.646;2023-04-24T07:55:56;7.47;;;6.87;;
8596;SDS011;4336;49.310;8.646;2023-04-24T07:58:22;7.90;;;7.30;;
8596;SDS011;4336;49.310;8.646;2023-04-24T08:00:49;7.73;;;7.07;;
8596;SDS011;4336;49.310;8.646;2023-04-24T08:03:15;8.70;;;8.00;;
8596;SDS011;4336;49.310;8.646;2023-04-24T08:05:44;7.50;;;6.90;;
8596;SDS011;4336;49.310;8.646;2023-04-24T08:08:10;6.10;;;5.60;;
8596;SDS011;4336;49.310;8.646;2023-04-24T08:10:36;8.23;;;7.57;;
8596;SDS011;4336;49.310;8.646;2023-04-24T08:13:03;8.77;;;8.00;;
8596;SDS011;4336;49.310;8.646;2023-04-24T08:15:29;8.20;;;7.50;;
8596;SDS011;4336;49.310;8.646;2023-04-24T08:17:55;8.27;;;7.67;;
8596;SDS011;4336;49.310;8.646;2023-04-24T08:20:21;6.77;;;6.27;;
8596;SDS011;4336;49.310;8.646;2023-04-24T08:22:47;7.60;;;7.00;;
8596;SDS011;4336;49.310;8.646;2023-04-24T08:25:14;7.67;;;7.07;;
8596;SDS011;4336;49.310;8.646;2023-04-24T08:27:40;6.40;;;5.90;;
8596;SDS011;4336;49.310;8.646;2023-04-24T08:30:06;7.53;;;6.93;;
8596;SDS011;4336;49.310;8.646;2023-04-24T08:32:32;7.40;;;6.80;;
8596;SDS011;4336;49.310;8.646;2023-04-24T08:34:59;6.93;;;6.43;;
8596;SDS011;4336;49.310;8.646;2023-04-24T08:37:26;6.97;;;6.47;;
8596;SDS011;4336;49.310;8.646;2023-04-24T08:39:52;5.60;;;5.20;;
8596;SDS011;4336;49.310;8.646;2023-04-24T08:42:19;8.17;;;7.47;;
8596;SDS011;4336;49.310;8.646;2023-04-24T08:44:46;6.90;;;6.40;;
8596;SDS011;4336;49.310;8.646;2023-04-24T08:47:12;7.53;;;6.93;;
8596;SDS011;4336;49.310;8.646;2023-04-24T08:49:38;7.73;;;7.10;;
8596;SDS011;4336;49.310;8.646;2023-04-24T08:52:05;6.83;;;6.33;;
8596;SDS011;4336;49.310;8.646;2023-04-24T08:54:31;7.93;;;7.27;;
8596;SDS011;4336;49.310;8.646;2023-04-24T08:56:58;8.37;;;7.57;;
8596;SDS011;4336;49.310;8.646;2023-04-24T08:59:28;7.73;;;7.13;;
8596;SDS011;4336;49.310;8.646;2023-04-24T09:01:55;6.77;;;6.27;;
8596;SDS011;4336;49.310;8.646;2023-04-24T09:04:21;7.23;;;6.63;;
8596;SDS011;4336;49.310;8.646;2023-04-24T09:06:50;9.40;;;8.50;;
8596;SDS011;4336;49.310;8.646;2023-04-24T09:09:17;7.73;;;6.93;;
8596;SDS011;4336;49.310;8.646;2023-04-24T09:11:44;11.00;;;7.70;;
8596;SDS011;4336;49.310;8.646;2023-04-24T09:14:10;7.33;;;6.57;;
8596;SDS011;4336;49.310;8.646;2023-04-24T09:16:36;7.30;;;6.70;;
8596;SDS011;4336;49.310;8.646;2023-04-24T09:19:02;7.30;;;6.70;;
8596;SDS011;4336;49.310;8.646;2023-04-24T09:21:32;7.07;;;6.57;;
8596;SDS011;4336;49.310;8.646;2023-04-24T09:24:00;7.57;;;6.97;;
8596;SDS011;4336;49.310;8.646;2023-04-24T09:26:31;7.73;;;7.13;;
8596;SDS011;4336;49.310;8.646;2023-04-24T09:28:57;6.30;;;5.80;;
8596;SDS011;4336;49.310;8.646;2023-04-24T09:31:24;6.83;;;6.33;;
8596;SDS011;4336;49.310;8.646;2023-04-24T09:34:02;8.30;;;7.60;;
8596;SDS011;4336;49.310;8.646;2023-04-24T09:36:31;7.27;;;6.67;;
8596;SDS011;4336;49.310;8.646;2023-04-24T09:39:04;6.77;;;6.27;;
8596;SDS011;4336;49.310;8.646;2023-04-24T09:41:33;6.00;;;5.60;;
8596;SDS011;4336;49.310;8.646;2023-04-24T09:46:37;8.30;;;7.30;;
8596;SDS011;4336;49.310;8.646;2023-04-24T09:49:07;7.60;;;6.90;;
8596;SDS011;4336;49.310;8.646;2023-04-24T09:51:35;10.87;;;7.97;;
8596;SDS011;4336;49.310;8.646;2023-04-24T09:54:02;8.90;;;8.10;;
8596;SDS011;4336;49.310;8.646;2023-04-24T09:56:32;7.83;;;7.07;;
8596;SDS011;4336;49.310;8.646;2023-04-24T09:59:05;9.27;;;8.37;;
8596;SDS011;4336;49.310;8.646;2023-04-24T10:01:31;9.00;;;8.20;;
8596;SDS011;4336;49.310;8.646;2023-04-24T10:03:58;9.80;;;8.90;;
8596;SDS011;4336;49.310;8.646;2023-04-24T10:06:34;10.60;;;9.50;;
8596;SDS011;4336;49.310;8.646;2023-04-24T10:09:00;9.57;;;8.63;;
8596;SDS011;4336;49.310;8.646;2023-04-24T10:11:27;9.50;;;8.60;;
8596;SDS011;4336;49.310;8.646;2023-04-24T10:13:53;9.50;;;8.60;;
8596;SDS011;4336;49.310;8.646;2023-04-24T10:16:21;9.77;;;7.57;;
8596;SDS011;4336;49.310;8.646;2023-04-24T10:18:48;8.70;;;8.00;;
8596;SDS011;4336;49.310;8.646;2023-04-24T10:21:14;12.00;;;10.80;;
8596;SDS011;4336;49.310;8.646;2023-04-24T10:23:41;10.83;;;9.80;;
8596;SDS011;4336;49.310;8.646;2023-04-24T10:26:12;12.17;;;9.90;;
8596;SDS011;4336;49.310;8.646;2023-04-24T10:28:46;11.23;;;10.13;;
8596;SDS011;4336;49.310;8.646;2023-04-24T10:31:13;11.23;;;10.23;;
8596;SDS011;4336;49.310;8.646;2023-04-24T10:33:40;10.33;;;9.30;;
8596;SDS011;4336;49.310;8.646;2023-04-24T10:36:09;11.87;;;9.20;;
8596;SDS011;4336;49.310;8.646;2023-04-24T10:38:35;9.57;;;8.67;;
8596;SDS011;4336;49.310;8.646;2023-04-24T10:41:09;11.43;;;10.33;;
8596;SDS011;4336;49.310;8.646;2023-04-24T10:43:40;10.60;;;9.70;;
8596;SDS011;4336;49.310;8.646;2023-04-24T10:46:07;11.17;;;10.17;;
8596;SDS011;4336;49.310;8.646;2023-04-24T10:48:35;11.37;;;10.37;;
8596;SDS011;4336;49.310;8.646;2023-04-24T10:51:01;9.20;;;8.30;;
8596;SDS011;4336;49.310;8.646;2023-04-24T10:53:28;11.53;;;10.53;;
8596;SDS011;4336;49.310;8.646;2023-04-24T10:55:59;11.63;;;10.47;;
8596;SDS011;4336;49.310;8.646;2023-04-24T10:58:35;11.67;;;10.60;;
8596;SDS011;4336;49.310;8.646;2023-04-24T11:01:02;10.60;;;9.70;;
8596;SDS011;4336;49.310;8.646;2023-04-24T11:03:29;9.50;;;8.70;;
8596;SDS011;4336;49.310;8.646;2023-04-24T11:06:03;9.33;;;8.53;;
8596;SDS011;4336;49.310;8.646;2023-04-24T11:08:37;10.20;;;9.30;;
8596;SDS011;4336;49.310;8.646;2023-04-24T11:11:08;12.40;;;11.20;;
8596;SDS011;4336;49.310;8.646;2023-04-24T11:14:08;14.67;;;13.23;;
8596;SDS011;4336;49.310;8.646;2023-04-24T11:19:04;8.10;;;7.50;;
8596;SDS011;4336;49.310;8.646;2023-04-24T11:21:32;8.33;;;7.73;;
8596;SDS011;4336;49.310;8.646;2023-04-24T11:23:58;7.77;;;7.17;;
8596;SDS011;4336;49.310;8.646;2023-04-24T11:26:24;8.00;;;7.40;;
8596;SDS011;4336;49.310;8.646;2023-04-24T11:28:55;8.10;;;7.50;;
8596;SDS011;4336;49.310;8.646;2023-04-24T11:31:35;8.63;;;7.93;;
8596;SDS011;4336;49.310;8.646;2023-04-24T11:34:06;7.87;;;7.27;;
8596;SDS011;4336;49.310;8.646;2023-04-24T11:36:33;7.43;;;6.87;;
8596;SDS011;4336;49.310;8.646;2023-04-24T11:39:00;8.70;;;8.00;;
8596;SDS011;4336;49.310;8.646;2023-04-24T11:41:26;8.67;;;8.00;;
8596;SDS011;4336;49.310;8.646;2023-04-24T11:43:53;9.27;;;8.47;;
8596;SDS011;4336;49.310;8.646;2023-04-24T11:46:22;7.63;;;7.03;;
8596;SDS011;4336;49.310;8.646;2023-04-24T11:48:47;7.90;;;7.30;;
8596;SDS011;4336;49.310;8.646;2023-04-24T11:51:14;9.60;;;7.60;;
8596;SDS011;4336;49.310;8.646;2023-04-24T11:53:40;7.33;;;6.77;;
8596;SDS011;4336;49.310;8.646;2023-04-24T11:56:05;9.47;;;8.77;;
8596;SDS011;4336;49.310;8.646;2023-04-24T11:58:35;8.03;;;7.33;;
8596;SDS011;4336;49.310;8.646;2023-04-24T12:01:01;8.80;;;8.00;;
8596;SDS011;4336;49.310;8.646;2023-04-24T12:03:27;9.10;;;8.40;;
8596;SDS011;4336;49.310;8.646;2023-04-24T12:05:53;8.27;;;7.67;;
8596;SDS011;4336;49.310;8.646;2023-04-24T12:08:31;6.30;;;5.83;;
8596;SDS011;4336;49.310;8.646;2023-04-24T12:10:57;8.80;;;8.10;;
8596;SDS011;4336;49.310;8.646;2023-04-24T12:13:25;8.17;;;7.57;;
8596;SDS011;4336;49.310;8.646;2023-04-24T12:15:51;9.27;;;8.53;;
8596;SDS011;4336;49.310;8.646;2023-04-24T12:18:17;8.63;;;7.83;;
8596;SDS011;4336;49.310;8.646;2023-04-24T12:20:44;8.60;;;8.00;;
8596;SDS011;4336;49.310;8.646;2023-04-24T12:23:09;12.43;;;8.07;;
8596;SDS011;4336;49.310;8.646;2023-04-24T12:25:35;8.73;;;8.03;;
8596;SDS011;4336;49.310;8.646;2023-04-24T12:30:34;13.33;;;9.97;;
8596;SDS011;4336;49.310;8.646;2023-04-24T12:33:01;8.07;;;7.40;;
8596;SDS011;4336;49.310;8.646;2023-04-24T12:35:29;9.20;;;8.40;;
8596;SDS011;4336;49.310;8.646;2023-04-24T12:38:05;8.60;;;7.80;;
8596;SDS011;4336;49.310;8.646;2023-04-24T12:40:35;9.07;;;8.37;;
8596;SDS011;4336;49.310;8.646;2023-04-24T12:43:01;7.90;;;7.30;;
8596;SDS011;4336;49.310;8.646;2023-04-24T12:45:27;8.27;;;7.57;;
8596;SDS011;4336;49.310;8.646;2023-04-24T12:47:53;9.07;;;8.37;;
8596;SDS011;4336;49.310;8.646;2023-04-24T12:50:19;8.17;;;7.57;;
8596;SDS011;4336;49.310;8.646;2023-04-24T12:52:45;8.20;;;7.57;;
8596;SDS011;4336;49.310;8.646;2023-04-24T12:55:10;8.40;;;7.70;;
8596;SDS011;4336;49.310;8.646;2023-04-24T12:57:38;8.77;;;8.07;;
8596;SDS011;4336;49.310;8.646;2023-04-24T13:00:05;8.67;;;7.97;;
8596;SDS011;4336;49.310;8.646;2023-04-24T13:02:32;8.83;;;8.13;;
8596;SDS011;4336;49.310;8.646;2023-04-24T13:04:59;8.77;;;8.07;;
8596;SDS011;4336;49.310;8.646;2023-04-24T13:07:25;8.33;;;7.57;;
8596;SDS011;4336;49.310;8.646;2023-04-24T13:09:51;7.43;;;6.83;;
8596;SDS011;4336;49.310;8.646;2023-04-24T13:12:17;8.10;;;7.50;;
8596;SDS011;4336;49.310;8.646;2023-04-24T13:14:43;12.50;;;10.33;;
8596;SDS011;4336;49.310;8.646;2023-04-24T13:17:10;7.70;;;7.10;;
8596;SDS011;4336;49.310;8.646;2023-04-24T13:19:38;6.23;;;5.63;;
8596;SDS011;4336;49.310;8.646;2023-04-24T13:22:05;6.33;;;5.83;;
8596;SDS011;4336;49.310;8.646;2023-04-24T13:24:32;6.43;;;5.93;;
8596;SDS011;4336;49.310;8.646;2023-04-24T13:26:58;8.40;;;7.60;;
8596;SDS011;4336;49.310;8.646;2023-04-24T13:29:24;8.23;;;7.53;;
8596;SDS011;4336;49.310;8.646;2023-04-24T13:31:50;13.77;;;7.97;;
8596;SDS011;4336;49.310;8.646;2023-04-24T13:34:16;9.57;;;8.77;;
8596;SDS011;4336;49.310;8.646;2023-04-24T13:36:43;9.47;;;8.60;;
8596;SDS011;4336;49.310;8.646;2023-04-24T13:39:09;9.03;;;7.50;;
8596;SDS011;4336;49.310;8.646;2023-04-24T13:41:35;6.53;;;6.03;;
8596;SDS011;4336;49.310;8.646;2023-04-24T13:44:06;8.60;;;7.87;;
8596;SDS011;4336;49.310;8.646;2023-04-24T13:46:32;1365.70;;;681.60;;
8596;SDS011;4336;49.310;8.646;2023-04-24T13:48:58;10.43;;;9.33;;
8596;SDS011;4336;49.310;8.646;2023-04-24T13:51:24;10.20;;;9.10;;
8596;SDS011;4336;49.310;8.646;2023-04-24T13:53:52;275.57;;;138.73;;
8596;SDS011;4336;49.310;8.646;2023-04-24T13:56:18;164.07;;;151.60;;
8596;SDS011;4336;49.310;8.646;2023-04-24T13:58:45;1999.90;;;999.90;;
8596;SDS011;4336;49.310;8.646;2023-04-24T14:01:14;1999.90;;;999.90;;
8596;SDS011;4336;49.310;8.646;2023-04-24T14:03:41;1999.90;;;999.90;;
8596;SDS011;4336;49.310;8.646;2023-04-24T14:06:07;1999.90;;;999.90;;
8596;SDS011;4336;49.310;8.646;2023-04-24T14:08:33;1999.90;;;999.90;;
8596;SDS011;4336;49.310;8.646;2023-04-24T14:10:59;601.67;;;246.50;;
8596;SDS011;4336;49.310;8.646;2023-04-24T14:13:24;1999.90;;;999.90;;
8596;SDS011;4336;49.310;8.646;2023-04-24T14:15:50;1999.90;;;999.90;;
8596;SDS011;4336;49.310;8.646;2023-04-24T14:18:17;1999.90;;;999.90;;
8596;SDS011;4336;49.310;8.646;2023-04-24T14:20:44;1999.90;;;999.90;;
8596;SDS011;4336;49.310;8.646;2023-04-24T14:23:10;1999.90;;;999.90;;
8596;SDS011;4336;49.310;8.646;2023-04-24T14:25:36;1999.90;;;999.90;;
8596;SDS011;4336;49.310;8.646;2023-04-24T14:28:01;1999.90;;;999.90;;
8596;SDS011;4336;49.310;8.646;2023-04-24T14:30:28;1999.90;;;999.90;;
8596;SDS011;4336;49.310;8.646;2023-04-24T14:32:53;10.60;;;9.50;;
8596;SDS011;4336;49.310;8.646;2023-04-24T14:35:19;40.60;;;37.70;;
8596;SDS011;4336;49.310;8.646;2023-04-24T14:37:45;276.83;;;80.40;;
8596;SDS011;4336;49.310;8.646;2023-04-24T14:40:11;10.50;;;9.50;;
8596;SDS011;4336;49.310;8.646;2023-04-24T14:42:37;66.73;;;12.93;;
8596;SDS011;4336;49.310;8.646;2023-04-24T14:45:03;12.40;;;11.10;;
8596;SDS011;4336;49.310;8.646;2023-04-24T14:47:29;763.67;;;103.43;;
8596;SDS011;4336;49.310;8.646;2023-04-24T14:49:54;1999.90;;;999.90;;
8596;SDS011;4336;49.310;8.646;2023-04-24T14:52:20;1999.90;;;999.90;;
8596;SDS011;4336;49.310;8.646;2023-04-24T14:54:46;1999.90;;;999.90;;
8596;SDS011;4336;49.310;8.646;2023-04-24T14:57:12;1999.90;;;999.90;;
8596;SDS011;4336;49.310;8.646;2023-04-24T14:59:39;1999.90;;;999.90;;
8596;SDS011;4336;49.310;8.646;2023-04-24T15:02:05;803.80;;;394.00;;
8596;SDS011;4336;49.310;8.646;2023-04-24T15:04:31;9.23;;;8.33;;
8596;SDS011;4336;49.310;8.646;2023-04-24T15:06:57;11.93;;;10.70;;
8596;SDS011;4336;49.310;8.646;2023-04-24T15:09:23;14.10;;;12.80;;
8596;SDS011;4336;49.310;8.646;2023-04-24T15:11:50;16.47;;;14.30;;
8596;SDS011;4336;49.310;8.646;2023-04-24T15:14:17;10.13;;;8.50;;
8596;SDS011;4336;49.310;8.646;2023-04-24T15:16:43;12.90;;;10.37;;